Terminal Aerodrome Forecast
Issued by NWS Blacksburg, VA

Home | Current Version | Previous Version | Text Only | Print | Product List | Glossary On
Versions: 1 2 3 4 5 6 7 8 9 10 11 12 13 14
000
FTUS41 KRNK 201357 AAA
TAFDAN
TAF AMD
KDAN 201357Z 2014/2112 05013G25KT P6SM SCT250
     FM201600 05013G22KT P6SM SCT250
     FM202300 05005KT P6SM SCT250=

USA.gov is the U.S. government's official web portal to all federal, state and local government web resources and services.